sensor_id;sensor_type;location;lat;lon;timestamp;temperature;humidity
17296;DHT22;8766;51.480;6.872;2022-10-28T00:01:26;20.00;66.40
17296;DHT22;8766;51.480;6.872;2022-10-28T00:03:54;19.80;66.20
17296;DHT22;8766;51.480;6.872;2022-10-28T00:06:23;19.90;66.20
17296;DHT22;8766;51.480;6.872;2022-10-28T00:08:50;19.90;66.20
17296;DHT22;8766;51.480;6.872;2022-10-28T00:11:20;19.90;66.10
17296;DHT22;8766;51.480;6.872;2022-10-28T00:13:48;19.90;66.10
17296;DHT22;8766;51.480;6.872;2022-10-28T00:16:16;19.90;66.10
17296;DHT22;8766;51.480;6.872;2022-10-28T00:18:44;19.90;66.10
17296;DHT22;8766;51.480;6.872;2022-10-28T00:21:13;19.90;66.10
17296;DHT22;8766;51.480;6.872;2022-10-28T00:23:40;19.90;66.10
17296;DHT22;8766;51.480;6.872;2022-10-28T00:26:08;20.00;66.20
17296;DHT22;8766;51.480;6.872;2022-10-28T00:28:40;19.90;66.10
17296;DHT22;8766;51.480;6.872;2022-10-28T00:31:09;19.90;66.00
17296;DHT22;8766;51.480;6.872;2022-10-28T00:33:37;19.90;66.10
17296;DHT22;8766;51.480;6.872;2022-10-28T00:36:12;19.90;66.00
17296;DHT22;8766;51.480;6.872;2022-10-28T00:38:39;20.00;66.70
17296;DHT22;8766;51.480;6.872;2022-10-28T00:41:07;20.00;66.00
17296;DHT22;8766;51.480;6.872;2022-10-28T00:43:36;20.00;66.00
17296;DHT22;8766;51.480;6.872;2022-10-28T00:46:10;20.10;66.00
17296;DHT22;8766;51.480;6.872;2022-10-28T00:48:41;20.00;66.00
17296;DHT22;8766;51.480;6.872;2022-10-28T00:51:09;20.00;66.00
17296;DHT22;8766;51.480;6.872;2022-10-28T00:53:36;20.00;65.90
17296;DHT22;8766;51.480;6.872;2022-10-28T00:56:05;20.00;65.90
17296;DHT22;8766;51.480;6.872;2022-10-28T00:58:33;20.00;65.90
17296;DHT22;8766;51.480;6.872;2022-10-28T01:01:00;20.00;65.90
17296;DHT22;8766;51.480;6.872;2022-10-28T01:03:28;20.00;66.00
17296;DHT22;8766;51.480;6.872;2022-10-28T01:05:56;20.00;66.00
17296;DHT22;8766;51.480;6.872;2022-10-28T01:08:23;20.00;66.00
17296;DHT22;8766;51.480;6.872;2022-10-28T01:11:19;20.00;66.00
17296;DHT22;8766;51.480;6.872;2022-10-28T01:13:59;20.00;66.00
17296;DHT22;8766;51.480;6.872;2022-10-28T01:16:36;20.00;66.00
17296;DHT22;8766;51.480;6.872;2022-10-28T01:19:35;20.00;65.90
17296;DHT22;8766;51.480;6.872;2022-10-28T01:22:12;20.00;66.00
17296;DHT22;8766;51.480;6.872;2022-10-28T01:24:57;20.00;65.90
17296;DHT22;8766;51.480;6.872;2022-10-28T01:27:47;20.00;65.90
17296;DHT22;8766;51.480;6.872;2022-10-28T01:30:19;20.00;65.90
17296;DHT22;8766;51.480;6.872;2022-10-28T01:32:51;20.00;65.90
17296;DHT22;8766;51.480;6.872;2022-10-28T01:35:24;20.00;65.90
17296;DHT22;8766;51.480;6.872;2022-10-28T01:38:08;19.90;65.80
17296;DHT22;8766;51.480;6.872;2022-10-28T01:40:42;19.90;65.90
17296;DHT22;8766;51.480;6.872;2022-10-28T01:43:13;19.90;65.90
17296;DHT22;8766;51.480;6.872;2022-10-28T01:45:44;19.90;65.90
17296;DHT22;8766;51.480;6.872;2022-10-28T01:48:19;19.90;65.80
17296;DHT22;8766;51.480;6.872;2022-10-28T01:50:50;19.90;65.80
17296;DHT22;8766;51.480;6.872;2022-10-28T01:53:22;19.90;65.80
17296;DHT22;8766;51.480;6.872;2022-10-28T01:55:52;19.90;65.80
17296;DHT22;8766;51.480;6.872;2022-10-28T01:58:24;19.90;65.80
17296;DHT22;8766;51.480;6.872;2022-10-28T02:00:52;19.90;65.90
17296;DHT22;8766;51.480;6.872;2022-10-28T02:03:21;19.90;65.90
17296;DHT22;8766;51.480;6.872;2022-10-28T02:05:50;19.90;65.90
17296;DHT22;8766;51.480;6.872;2022-10-28T02:08:29;19.90;65.90
17296;DHT22;8766;51.480;6.872;2022-10-28T02:11:06;19.90;66.00
17296;DHT22;8766;51.480;6.872;2022-10-28T02:13:42;20.00;66.10
17296;DHT22;8766;51.480;6.872;2022-10-28T02:16:18;19.80;66.00
17296;DHT22;8766;51.480;6.872;2022-10-28T02:18:58;19.80;66.10
17296;DHT22;8766;51.480;6.872;2022-10-28T02:21:33;19.80;66.20
17296;DHT22;8766;51.480;6.872;2022-10-28T02:24:07;19.80;66.30
17296;DHT22;8766;51.480;6.872;2022-10-28T02:26:38;19.70;66.30
17296;DHT22;8766;51.480;6.872;2022-10-28T02:29:13;19.70;66.40
17296;DHT22;8766;51.480;6.872;2022-10-28T02:31:46;19.60;66.50
17296;DHT22;8766;51.480;6.872;2022-10-28T02:34:19;19.60;66.60
17296;DHT22;8766;51.480;6.872;2022-10-28T02:36:49;19.50;66.60
17296;DHT22;8766;51.480;6.872;2022-10-28T02:39:19;19.50;66.70
17296;DHT22;8766;51.480;6.872;2022-10-28T02:41:51;19.50;66.90
17296;DHT22;8766;51.480;6.872;2022-10-28T02:44:22;19.50;66.90
17296;DHT22;8766;51.480;6.872;2022-10-28T02:46:51;19.40;66.90
17296;DHT22;8766;51.480;6.872;2022-10-28T02:49:21;19.40;66.90
17296;DHT22;8766;51.480;6.872;2022-10-28T02:51:52;19.30;67.00
17296;DHT22;8766;51.480;6.872;2022-10-28T02:54:23;19.30;67.00
17296;DHT22;8766;51.480;6.872;2022-10-28T02:56:56;19.30;67.10
17296;DHT22;8766;51.480;6.872;2022-10-28T02:59:24;19.30;67.10
17296;DHT22;8766;51.480;6.872;2022-10-28T03:01:51;19.30;67.10
17296;DHT22;8766;51.480;6.872;2022-10-28T03:04:18;19.30;67.10
17296;DHT22;8766;51.480;6.872;2022-10-28T03:06:46;19.30;67.20
17296;DHT22;8766;51.480;6.872;2022-10-28T03:09:12;19.20;67.20
17296;DHT22;8766;51.480;6.872;2022-10-28T03:11:39;19.20;67.30
17296;DHT22;8766;51.480;6.872;2022-10-28T03:14:06;19.20;67.30
17296;DHT22;8766;51.480;6.872;2022-10-28T03:16:33;19.20;67.30
17296;DHT22;8766;51.480;6.872;2022-10-28T03:18:59;19.20;67.40
17296;DHT22;8766;51.480;6.872;2022-10-28T03:21:26;19.10;67.40
17296;DHT22;8766;51.480;6.872;2022-10-28T03:23:54;19.10;67.40
17296;DHT22;8766;51.480;6.872;2022-10-28T03:26:21;19.10;67.50
17296;DHT22;8766;51.480;6.872;2022-10-28T03:28:48;19.10;67.50
17296;DHT22;8766;51.480;6.872;2022-10-28T03:31:15;19.10;67.50
17296;DHT22;8766;51.480;6.872;2022-10-28T03:33:41;19.20;67.60
17296;DHT22;8766;51.480;6.872;2022-10-28T03:36:08;19.10;67.50
17296;DHT22;8766;51.480;6.872;2022-10-28T03:38:35;19.10;67.50
17296;DHT22;8766;51.480;6.872;2022-10-28T03:41:03;19.00;67.50
17296;DHT22;8766;51.480;6.872;2022-10-28T03:43:30;19.00;67.50
17296;DHT22;8766;51.480;6.872;2022-10-28T03:45:56;19.00;67.60
17296;DHT22;8766;51.480;6.872;2022-10-28T03:48:23;19.00;68.30
17296;DHT22;8766;51.480;6.872;2022-10-28T03:50:51;19.00;67.70
17296;DHT22;8766;51.480;6.872;2022-10-28T03:53:19;18.90;67.80
17296;DHT22;8766;51.480;6.872;2022-10-28T03:55:51;18.90;67.90
17296;DHT22;8766;51.480;6.872;2022-10-28T03:58:19;18.80;67.90
17296;DHT22;8766;51.480;6.872;2022-10-28T04:00:47;18.80;67.90
17296;DHT22;8766;51.480;6.872;2022-10-28T04:03:14;18.80;67.90
17296;DHT22;8766;51.480;6.872;2022-10-28T04:05:41;18.80;67.90
17296;DHT22;8766;51.480;6.872;2022-10-28T04:08:08;18.80;67.90
17296;DHT22;8766;51.480;6.872;2022-10-28T04:10:35;18.80;67.90
17296;DHT22;8766;51.480;6.872;2022-10-28T04:13:03;18.80;67.90
17296;DHT22;8766;51.480;6.872;2022-10-28T04:15:32;18.70;67.80
17296;DHT22;8766;51.480;6.872;2022-10-28T04:17:59;18.80;67.90
17296;DHT22;8766;51.480;6.872;2022-10-28T04:20:26;18.80;67.90
17296;DHT22;8766;51.480;6.872;2022-10-28T04:22:53;18.80;67.90
17296;DHT22;8766;51.480;6.872;2022-10-28T04:25:20;18.80;67.90
17296;DHT22;8766;51.480;6.872;2022-10-28T04:27:47;18.80;67.90
17296;DHT22;8766;51.480;6.872;2022-10-28T04:30:14;18.80;68.00
17296;DHT22;8766;51.480;6.872;2022-10-28T04:32:42;18.80;67.90
17296;DHT22;8766;51.480;6.872;2022-10-28T04:35:10;18.90;68.10
17296;DHT22;8766;51.480;6.872;2022-10-28T04:37:37;18.70;67.90
17296;DHT22;8766;51.480;6.872;2022-10-28T04:40:06;18.70;67.90
17296;DHT22;8766;51.480;6.872;2022-10-28T04:42:33;18.80;68.00
17296;DHT22;8766;51.480;6.872;2022-10-28T04:45:00;18.70;67.90
17296;DHT22;8766;51.480;6.872;2022-10-28T04:47:27;18.70;67.90
17296;DHT22;8766;51.480;6.872;2022-10-28T04:49:55;18.70;68.00
17296;DHT22;8766;51.480;6.872;2022-10-28T04:52:22;18.70;68.00
17296;DHT22;8766;51.480;6.872;2022-10-28T04:54:48;18.70;68.70
17296;DHT22;8766;51.480;6.872;2022-10-28T04:57:15;18.70;68.00
17296;DHT22;8766;51.480;6.872;2022-10-28T04:59:42;18.70;68.00
17296;DHT22;8766;51.480;6.872;2022-10-28T05:02:08;18.70;68.00
17296;DHT22;8766;51.480;6.872;2022-10-28T05:04:35;18.70;68.00
17296;DHT22;8766;51.480;6.872;2022-10-28T05:07:03;18.70;68.00
17296;DHT22;8766;51.480;6.872;2022-10-28T05:09:31;18.70;68.00
17296;DHT22;8766;51.480;6.872;2022-10-28T05:11:58;18.70;68.10
17296;DHT22;8766;51.480;6.872;2022-10-28T05:14:24;18.60;68.00
17296;DHT22;8766;51.480;6.872;2022-10-28T05:16:51;18.70;68.10
17296;DHT22;8766;51.480;6.872;2022-10-28T05:19:18;18.60;68.10
17296;DHT22;8766;51.480;6.872;2022-10-28T05:21:44;18.60;68.10
17296;DHT22;8766;51.480;6.872;2022-10-28T05:24:12;18.60;68.10
17296;DHT22;8766;51.480;6.872;2022-10-28T05:26:39;18.60;68.10
17296;DHT22;8766;51.480;6.872;2022-10-28T05:29:06;18.60;68.00
17296;DHT22;8766;51.480;6.872;2022-10-28T05:31:33;18.60;68.00
17296;DHT22;8766;51.480;6.872;2022-10-28T05:34:00;18.60;68.00
17296;DHT22;8766;51.480;6.872;2022-10-28T05:36:27;18.60;68.10
17296;DHT22;8766;51.480;6.872;2022-10-28T05:38:53;18.60;68.10
17296;DHT22;8766;51.480;6.872;2022-10-28T05:41:21;18.60;68.10
17296;DHT22;8766;51.480;6.872;2022-10-28T05:43:48;18.70;68.00
17296;DHT22;8766;51.480;6.872;2022-10-28T05:46:16;18.70;67.90
17296;DHT22;8766;51.480;6.872;2022-10-28T05:48:43;18.70;67.70
17296;DHT22;8766;51.480;6.872;2022-10-28T05:51:09;18.80;67.70
17296;DHT22;8766;51.480;6.872;2022-10-28T05:53:36;18.80;67.60
17296;DHT22;8766;51.480;6.872;2022-10-28T05:56:03;18.80;67.50
17296;DHT22;8766;51.480;6.872;2022-10-28T05:58:31;18.90;67.60
17296;DHT22;8766;51.480;6.872;2022-10-28T06:00:58;18.90;68.20
17296;DHT22;8766;51.480;6.872;2022-10-28T06:03:25;18.90;67.50
17296;DHT22;8766;51.480;6.872;2022-10-28T06:05:51;18.90;67.50
17296;DHT22;8766;51.480;6.872;2022-10-28T06:08:19;18.90;67.60
17296;DHT22;8766;51.480;6.872;2022-10-28T06:10:49;18.80;67.50
17296;DHT22;8766;51.480;6.872;2022-10-28T06:13:16;18.80;67.70
17296;DHT22;8766;51.480;6.872;2022-10-28T06:15:49;18.80;67.70
17296;DHT22;8766;51.480;6.872;2022-10-28T06:18:16;18.70;67.80
17296;DHT22;8766;51.480;6.872;2022-10-28T06:20:43;18.70;67.70
17296;DHT22;8766;51.480;6.872;2022-10-28T06:23:10;18.70;67.70
17296;DHT22;8766;51.480;6.872;2022-10-28T06:25:36;18.80;67.80
17296;DHT22;8766;51.480;6.872;2022-10-28T06:28:03;18.80;67.70
17296;DHT22;8766;51.480;6.872;2022-10-28T06:30:32;18.80;67.60
17296;DHT22;8766;51.480;6.872;2022-10-28T06:33:00;18.70;67.60
17296;DHT22;8766;51.480;6.872;2022-10-28T06:35:27;18.80;67.60
17296;DHT22;8766;51.480;6.872;2022-10-28T06:37:54;18.80;67.60
17296;DHT22;8766;51.480;6.872;2022-10-28T06:40:21;18.80;67.50
17296;DHT22;8766;51.480;6.872;2022-10-28T06:42:48;18.90;67.50
17296;DHT22;8766;51.480;6.872;2022-10-28T06:45:15;18.90;67.40
17296;DHT22;8766;51.480;6.872;2022-10-28T06:47:42;18.90;67.30
17296;DHT22;8766;51.480;6.872;2022-10-28T06:50:10;19.00;67.30
17296;DHT22;8766;51.480;6.872;2022-10-28T06:52:36;18.90;67.20
17296;DHT22;8766;51.480;6.872;2022-10-28T06:55:04;19.00;67.20
17296;DHT22;8766;51.480;6.872;2022-10-28T06:57:30;19.00;67.20
17296;DHT22;8766;51.480;6.872;2022-10-28T06:59:57;19.00;67.10
17296;DHT22;8766;51.480;6.872;2022-10-28T07:02:24;19.00;67.10
17296;DHT22;8766;51.480;6.872;2022-10-28T07:04:51;19.10;67.10
17296;DHT22;8766;51.480;6.872;2022-10-28T07:07:19;19.10;67.00
17296;DHT22;8766;51.480;6.872;2022-10-28T07:09:46;19.10;67.00
17296;DHT22;8766;51.480;6.872;2022-10-28T07:12:12;19.20;66.90
17296;DHT22;8766;51.480;6.872;2022-10-28T07:14:39;19.20;66.70
17296;DHT22;8766;51.480;6.872;2022-10-28T07:17:06;19.30;66.50
17296;DHT22;8766;51.480;6.872;2022-10-28T07:19:33;19.40;66.40
17296;DHT22;8766;51.480;6.872;2022-10-28T07:21:59;19.40;66.20
17296;DHT22;8766;51.480;6.872;2022-10-28T07:24:27;19.50;66.00
17296;DHT22;8766;51.480;6.872;2022-10-28T07:26:54;19.60;65.90
17296;DHT22;8766;51.480;6.872;2022-10-28T07:29:21;19.70;65.70
17296;DHT22;8766;51.480;6.872;2022-10-28T07:31:48;19.70;65.50
17296;DHT22;8766;51.480;6.872;2022-10-28T07:34:14;19.80;65.40
17296;DHT22;8766;51.480;6.872;2022-10-28T07:36:41;20.10;65.30
17296;DHT22;8766;51.480;6.872;2022-10-28T07:39:09;20.00;65.10
17296;DHT22;8766;51.480;6.872;2022-10-28T07:41:37;20.00;65.00
17296;DHT22;8766;51.480;6.872;2022-10-28T07:44:03;20.10;65.00
17296;DHT22;8766;51.480;6.872;2022-10-28T07:46:31;20.00;65.00
17296;DHT22;8766;51.480;6.872;2022-10-28T07:48:57;20.10;65.00
17296;DHT22;8766;51.480;6.872;2022-10-28T07:51:24;20.10;65.00
17296;DHT22;8766;51.480;6.872;2022-10-28T07:53:51;20.10;65.00
17296;DHT22;8766;51.480;6.872;2022-10-28T07:56:18;20.10;64.80
17296;DHT22;8766;51.480;6.872;2022-10-28T07:58:46;20.20;64.80
17296;DHT22;8766;51.480;6.872;2022-10-28T08:01:14;20.30;64.70
17296;DHT22;8766;51.480;6.872;2022-10-28T08:03:42;20.40;64.60
17296;DHT22;8766;51.480;6.872;2022-10-28T08:06:11;20.40;64.30
17296;DHT22;8766;51.480;6.872;2022-10-28T08:08:38;20.50;64.20
17296;DHT22;8766;51.480;6.872;2022-10-28T08:11:09;20.60;63.90
17296;DHT22;8766;51.480;6.872;2022-10-28T08:13:35;20.70;63.70
17296;DHT22;8766;51.480;6.872;2022-10-28T08:16:04;20.80;63.60
17296;DHT22;8766;51.480;6.872;2022-10-28T08:18:31;20.90;63.50
17296;DHT22;8766;51.480;6.872;2022-10-28T08:20:58;20.90;63.20
17296;DHT22;8766;51.480;6.872;2022-10-28T08:23:25;21.00;63.20
17296;DHT22;8766;51.480;6.872;2022-10-28T08:25:52;21.00;63.10
17296;DHT22;8766;51.480;6.872;2022-10-28T08:28:20;21.10;63.10
17296;DHT22;8766;51.480;6.872;2022-10-28T08:30:47;21.10;63.00
17296;DHT22;8766;51.480;6.872;2022-10-28T08:33:16;21.30;62.70
17296;DHT22;8766;51.480;6.872;2022-10-28T08:35:42;21.60;62.20
17296;DHT22;8766;51.480;6.872;2022-10-28T08:38:14;22.10;61.30
17296;DHT22;8766;51.480;6.872;2022-10-28T08:40:47;22.80;59.80
17296;DHT22;8766;51.480;6.872;2022-10-28T08:43:22;23.30;59.00
17296;DHT22;8766;51.480;6.872;2022-10-28T08:45:56;23.70;58.30
17296;DHT22;8766;51.480;6.872;2022-10-28T08:48:29;24.10;57.60
17296;DHT22;8766;51.480;6.872;2022-10-28T08:51:00;24.60;56.90
17296;DHT22;8766;51.480;6.872;2022-10-28T08:53:33;25.10;56.20
17296;DHT22;8766;51.480;6.872;2022-10-28T08:56:06;25.80;55.30
17296;DHT22;8766;51.480;6.872;2022-10-28T08:58:40;26.50;54.30
17296;DHT22;8766;51.480;6.872;2022-10-28T09:01:14;26.90;53.90
17296;DHT22;8766;51.480;6.872;2022-10-28T09:03:44;26.80;54.00
17296;DHT22;8766;51.480;6.872;2022-10-28T09:06:13;26.50;54.60
17296;DHT22;8766;51.480;6.872;2022-10-28T09:08:42;25.90;56.10
17296;DHT22;8766;51.480;6.872;2022-10-28T09:14:24;24.80;57.60
17296;DHT22;8766;51.480;6.872;2022-10-28T09:17:00;24.50;58.30
17296;DHT22;8766;51.480;6.872;2022-10-28T09:19:39;24.10;58.80
17296;DHT22;8766;51.480;6.872;2022-10-28T09:22:20;23.90;59.30
17296;DHT22;8766;51.480;6.872;2022-10-28T09:24:51;23.70;59.60
17296;DHT22;8766;51.480;6.872;2022-10-28T09:27:26;23.70;59.80
17296;DHT22;8766;51.480;6.872;2022-10-28T09:30:03;23.70;59.60
17296;DHT22;8766;51.480;6.872;2022-10-28T09:32:38;24.10;59.20
17296;DHT22;8766;51.480;6.872;2022-10-28T09:35:11;24.70;58.30
17296;DHT22;8766;51.480;6.872;2022-10-28T09:37:40;25.60;56.80
17296;DHT22;8766;51.480;6.872;2022-10-28T09:40:14;26.60;55.40
17296;DHT22;8766;51.480;6.872;2022-10-28T09:42:48;27.40;54.20
17296;DHT22;8766;51.480;6.872;2022-10-28T09:45:22;28.00;53.40
17296;DHT22;8766;51.480;6.872;2022-10-28T09:47:54;28.30;52.90
17296;DHT22;8766;51.480;6.872;2022-10-28T09:50:28;28.20;53.00
17296;DHT22;8766;51.480;6.872;2022-10-28T09:52:58;27.90;53.70
17296;DHT22;8766;51.480;6.872;2022-10-28T09:55:28;27.60;54.30
17296;DHT22;8766;51.480;6.872;2022-10-28T09:57:57;27.30;54.60
17296;DHT22;8766;51.480;6.872;2022-10-28T10:00:24;27.40;54.60
17296;DHT22;8766;51.480;6.872;2022-10-28T10:02:54;27.60;54.30
17296;DHT22;8766;51.480;6.872;2022-10-28T10:05:24;27.70;54.10
17296;DHT22;8766;51.480;6.872;2022-10-28T10:07:53;27.60;53.90
17296;DHT22;8766;51.480;6.872;2022-10-28T10:10:23;27.50;54.10
17296;DHT22;8766;51.480;6.872;2022-10-28T10:12:52;27.20;54.50
17296;DHT22;8766;51.480;6.872;2022-10-28T10:15:28;26.80;55.10
17296;DHT22;8766;51.480;6.872;2022-10-28T10:17:57;26.30;55.90
17296;DHT22;8766;51.480;6.872;2022-10-28T10:20:27;25.80;56.60
17296;DHT22;8766;51.480;6.872;2022-10-28T10:22:54;25.40;57.30
17296;DHT22;8766;51.480;6.872;2022-10-28T10:25:26;25.10;57.80
17296;DHT22;8766;51.480;6.872;2022-10-28T10:27:58;24.90;58.20
17296;DHT22;8766;51.480;6.872;2022-10-28T10:30:29;24.80;58.40
17296;DHT22;8766;51.480;6.872;2022-10-28T10:32:57;24.70;58.60
17296;DHT22;8766;51.480;6.872;2022-10-28T10:35:27;24.50;58.70
17296;DHT22;8766;51.480;6.872;2022-10-28T10:37:56;24.40;58.90
17296;DHT22;8766;51.480;6.872;2022-10-28T10:40:25;24.30;59.00
17296;DHT22;8766;51.480;6.872;2022-10-28T10:42:56;24.20;59.10
17296;DHT22;8766;51.480;6.872;2022-10-28T10:45:39;24.10;59.10
17296;DHT22;8766;51.480;6.872;2022-10-28T10:48:11;24.10;59.20
17296;DHT22;8766;51.480;6.872;2022-10-28T10:50:40;24.10;59.30
17296;DHT22;8766;51.480;6.872;2022-10-28T10:53:17;24.10;59.20
17296;DHT22;8766;51.480;6.872;2022-10-28T10:55:50;24.10;59.20
17296;DHT22;8766;51.480;6.872;2022-10-28T10:58:19;24.00;59.10
17296;DHT22;8766;51.480;6.872;2022-10-28T11:00:49;24.10;59.00
17296;DHT22;8766;51.480;6.872;2022-10-28T11:03:20;24.10;59.00
17296;DHT22;8766;51.480;6.872;2022-10-28T11:05:51;24.10;59.10
17296;DHT22;8766;51.480;6.872;2022-10-28T11:08:28;24.00;59.20
17296;DHT22;8766;51.480;6.872;2022-10-28T11:11:09;23.90;59.30
17296;DHT22;8766;51.480;6.872;2022-10-28T11:13:37;23.90;59.30
17296;DHT22;8766;51.480;6.872;2022-10-28T11:16:14;24.00;59.20
17296;DHT22;8766;51.480;6.872;2022-10-28T11:18:43;24.00;59.10
17296;DHT22;8766;51.480;6.872;2022-10-28T11:24:18;24.00;59.00
17296;DHT22;8766;51.480;6.872;2022-10-28T11:26:52;23.90;59.00
17296;DHT22;8766;51.480;6.872;2022-10-28T11:29:20;24.00;59.10
17296;DHT22;8766;51.480;6.872;2022-10-28T11:34:56;24.00;59.10
17296;DHT22;8766;51.480;6.872;2022-10-28T11:37:35;23.90;59.10
17296;DHT22;8766;51.480;6.872;2022-10-28T11:40:14;23.90;59.10
17296;DHT22;8766;51.480;6.872;2022-10-28T11:42:50;23.90;59.20
17296;DHT22;8766;51.480;6.872;2022-10-28T11:45:28;23.90;59.30
17296;DHT22;8766;51.480;6.872;2022-10-28T11:48:09;23.90;59.30
17296;DHT22;8766;51.480;6.872;2022-10-28T11:50:46;23.80;59.30
17296;DHT22;8766;51.480;6.872;2022-10-28T11:56:23;23.90;59.20
17296;DHT22;8766;51.480;6.872;2022-10-28T12:01:51;24.00;58.90
17296;DHT22;8766;51.480;6.872;2022-10-28T12:04:51;24.10;58.90
17296;DHT22;8766;51.480;6.872;2022-10-28T12:07:32;24.10;58.90
17296;DHT22;8766;51.480;6.872;2022-10-28T12:10:18;24.00;58.80
17296;DHT22;8766;51.480;6.872;2022-10-28T12:12:51;24.00;58.90
17296;DHT22;8766;51.480;6.872;2022-10-28T12:15:26;24.10;58.90
17296;DHT22;8766;51.480;6.872;2022-10-28T12:17:59;24.10;58.80
17296;DHT22;8766;51.480;6.872;2022-10-28T12:20:31;24.10;58.70
17296;DHT22;8766;51.480;6.872;2022-10-28T12:23:03;24.10;58.70
17296;DHT22;8766;51.480;6.872;2022-10-28T12:25:44;24.10;58.70
17296;DHT22;8766;51.480;6.872;2022-10-28T12:28:17;24.10;58.70
17296;DHT22;8766;51.480;6.872;2022-10-28T12:30:46;24.00;58.80
17296;DHT22;8766;51.480;6.872;2022-10-28T12:33:17;24.00;59.00
17296;DHT22;8766;51.480;6.872;2022-10-28T12:35:47;24.00;59.00
17296;DHT22;8766;51.480;6.872;2022-10-28T12:38:19;24.00;59.60
17296;DHT22;8766;51.480;6.872;2022-10-28T12:40:58;24.00;59.10
17296;DHT22;8766;51.480;6.872;2022-10-28T12:43:31;24.00;59.10
17296;DHT22;8766;51.480;6.872;2022-10-28T12:46:00;23.90;59.00
17296;DHT22;8766;51.480;6.872;2022-10-28T12:48:31;24.00;59.10
17296;DHT22;8766;51.480;6.872;2022-10-28T12:51:04;24.00;59.20
17296;DHT22;8766;51.480;6.872;2022-10-28T12:53:38;23.90;59.70
17296;DHT22;8766;51.480;6.872;2022-10-28T12:56:11;23.90;59.20
17296;DHT22;8766;51.480;6.872;2022-10-28T12:58:48;23.90;59.20
17296;DHT22;8766;51.480;6.872;2022-10-28T13:01:18;24.00;59.20
17296;DHT22;8766;51.480;6.872;2022-10-28T13:03:48;23.90;59.20
17296;DHT22;8766;51.480;6.872;2022-10-28T13:06:36;23.90;59.20
17296;DHT22;8766;51.480;6.872;2022-10-28T13:09:29;23.90;59.30
17296;DHT22;8766;51.480;6.872;2022-10-28T13:12:11;23.90;59.40
17296;DHT22;8766;51.480;6.872;2022-10-28T13:15:02;23.80;59.40
17296;DHT22;8766;51.480;6.872;2022-10-28T13:17:40;23.80;59.50
17296;DHT22;8766;51.480;6.872;2022-10-28T13:20:18;23.80;59.50
17296;DHT22;8766;51.480;6.872;2022-10-28T13:22:54;23.70;59.40
17296;DHT22;8766;51.480;6.872;2022-10-28T13:25:37;23.70;59.50
17296;DHT22;8766;51.480;6.872;2022-10-28T13:28:12;23.70;59.50
17296;DHT22;8766;51.480;6.872;2022-10-28T13:30:51;23.70;59.50
17296;DHT22;8766;51.480;6.872;2022-10-28T13:33:22;23.80;59.50
17296;DHT22;8766;51.480;6.872;2022-10-28T13:35:49;23.70;59.50
17296;DHT22;8766;51.480;6.872;2022-10-28T13:38:21;23.80;59.50
17296;DHT22;8766;51.480;6.872;2022-10-28T13:41:08;23.80;59.50
17296;DHT22;8766;51.480;6.872;2022-10-28T13:43:59;23.80;59.50
17296;DHT22;8766;51.480;6.872;2022-10-28T13:56:21;23.80;59.30
17296;DHT22;8766;51.480;6.872;2022-10-28T13:58:53;23.90;59.40
17296;DHT22;8766;51.480;6.872;2022-10-28T14:04:30;23.80;59.40
17296;DHT22;8766;51.480;6.872;2022-10-28T14:07:14;23.80;59.50
17296;DHT22;8766;51.480;6.872;2022-10-28T14:09:44;23.70;59.50
17296;DHT22;8766;51.480;6.872;2022-10-28T14:15:03;23.70;59.70
17296;DHT22;8766;51.480;6.872;2022-10-28T14:17:36;23.60;59.80
17296;DHT22;8766;51.480;6.872;2022-10-28T14:20:18;23.70;59.80
17296;DHT22;8766;51.480;6.872;2022-10-28T14:22:46;23.60;59.90
17296;DHT22;8766;51.480;6.872;2022-10-28T14:34:40;23.50;59.90
17296;DHT22;8766;51.480;6.872;2022-10-28T14:40:22;23.40;60.10
17296;DHT22;8766;51.480;6.872;2022-10-28T14:46:02;23.30;60.40
17296;DHT22;8766;51.480;6.872;2022-10-28T14:48:46;23.20;60.40
17296;DHT22;8766;51.480;6.872;2022-10-28T14:51:18;23.20;60.50
17296;DHT22;8766;51.480;6.872;2022-10-28T14:53:46;23.20;60.60
17296;DHT22;8766;51.480;6.872;2022-10-28T14:56:20;23.10;60.60
17296;DHT22;8766;51.480;6.872;2022-10-28T14:58:49;23.30;60.80
17296;DHT22;8766;51.480;6.872;2022-10-28T15:01:23;23.10;60.70
17296;DHT22;8766;51.480;6.872;2022-10-28T15:03:53;23.00;60.70
17296;DHT22;8766;51.480;6.872;2022-10-28T15:06:31;23.00;60.80
17296;DHT22;8766;51.480;6.872;2022-10-28T15:09:16;23.00;60.80
17296;DHT22;8766;51.480;6.872;2022-10-28T15:11:45;23.00;60.90
17296;DHT22;8766;51.480;6.872;2022-10-28T15:14:21;22.90;61.00
17296;DHT22;8766;51.480;6.872;2022-10-28T15:16:49;22.90;61.00
17296;DHT22;8766;51.480;6.872;2022-10-28T15:19:18;22.90;61.10
17296;DHT22;8766;51.480;6.872;2022-10-28T15:22:02;22.80;61.10
17296;DHT22;8766;51.480;6.872;2022-10-28T15:24:31;22.80;61.20
17296;DHT22;8766;51.480;6.872;2022-10-28T15:26:58;22.80;61.30
17296;DHT22;8766;51.480;6.872;2022-10-28T15:29:25;22.70;61.30
17296;DHT22;8766;51.480;6.872;2022-10-28T15:32:31;22.70;61.40
17296;DHT22;8766;51.480;6.872;2022-10-28T15:34:59;22.60;61.50
17296;DHT22;8766;51.480;6.872;2022-10-28T15:37:45;22.50;61.60
17296;DHT22;8766;51.480;6.872;2022-10-28T15:40:20;22.50;61.70
17296;DHT22;8766;51.480;6.872;2022-10-28T15:42:53;22.40;61.80
17296;DHT22;8766;51.480;6.872;2022-10-28T15:45:23;22.50;62.00
17296;DHT22;8766;51.480;6.872;2022-10-28T15:47:51;22.30;61.90
17296;DHT22;8766;51.480;6.872;2022-10-28T15:50:25;22.30;62.10
17296;DHT22;8766;51.480;6.872;2022-10-28T15:52:53;22.30;62.20
17296;DHT22;8766;51.480;6.872;2022-10-28T15:55:28;22.20;62.20
17296;DHT22;8766;51.480;6.872;2022-10-28T15:57:56;22.20;62.20
17296;DHT22;8766;51.480;6.872;2022-10-28T16:00:25;22.20;62.20
17296;DHT22;8766;51.480;6.872;2022-10-28T16:02:54;22.20;62.20
17296;DHT22;8766;51.480;6.872;2022-10-28T16:05:52;22.20;62.20
17296;DHT22;8766;51.480;6.872;2022-10-28T16:08:22;22.20;62.20
17296;DHT22;8766;51.480;6.872;2022-10-28T16:10:59;22.10;62.20
17296;DHT22;8766;51.480;6.872;2022-10-28T16:13:29;22.20;62.30
17296;DHT22;8766;51.480;6.872;2022-10-28T16:16:00;22.10;62.20
17296;DHT22;8766;51.480;6.872;2022-10-28T16:18:30;22.10;62.30
17296;DHT22;8766;51.480;6.872;2022-10-28T16:20:58;22.10;62.30
17296;DHT22;8766;51.480;6.872;2022-10-28T16:23:32;22.10;62.40
17296;DHT22;8766;51.480;6.872;2022-10-28T16:26:01;22.10;62.40
17296;DHT22;8766;51.480;6.872;2022-10-28T16:28:29;22.00;62.40
17296;DHT22;8766;51.480;6.872;2022-10-28T16:30:58;22.10;62.50
17296;DHT22;8766;51.480;6.872;2022-10-28T16:33:30;22.00;62.50
17296;DHT22;8766;51.480;6.872;2022-10-28T16:35:58;21.90;62.60
17296;DHT22;8766;51.480;6.872;2022-10-28T16:38:25;21.90;62.70
17296;DHT22;8766;51.480;6.872;2022-10-28T16:40:52;21.80;62.70
17296;DHT22;8766;51.480;6.872;2022-10-28T16:43:21;21.80;62.90
17296;DHT22;8766;51.480;6.872;2022-10-28T16:45:50;21.70;63.00
17296;DHT22;8766;51.480;6.872;2022-10-28T16:48:18;21.70;63.10
17296;DHT22;8766;51.480;6.872;2022-10-28T16:50:48;21.60;63.10
17296;DHT22;8766;51.480;6.872;2022-10-28T16:53:16;21.60;63.20
17296;DHT22;8766;51.480;6.872;2022-10-28T16:55:42;21.60;63.30